Time;durP1;ratioP1;P1;durP2;ratioP2;P2;SDS_P1;SDS_P2;PMS_P1;PMS_P2;Temp;Humidity;BMP_temperature;BMP_pressure;BME280_temperature;BME280_humidity;BME280_pressure;Samples;Min_cycle;Max_cycle;Signal;HPM_P1;HPM_P2
2022/08/12 00:44:43;;;;;;;5.28;1.58;;;;;;;24.44;48.93;101445.66;4842974;29;20056;-59
2022/08/12 00:47:13;;;;;;;5.38;1.40;;;;;;;24.68;47.83;101441.09;4843064;29;20117;-59
2022/08/12 00:49:40;;;;;;;5.03;1.48;;;;;;;24.62;48.09;101439.50;4843067;29;20061;-62
2022/08/12 00:52:10;;;;;;;5.40;1.40;;;;;;;24.34;48.57;101432.81;4842715;29;20479;-64
2022/08/12 00:54:51;;;;;;;4.40;1.48;;;;;;;24.27;48.45;101437.81;4843639;29;20052;-61
2022/08/12 00:57:24;;;;;;;3.75;1.40;;;;;;;24.51;48.61;101426.16;4842867;29;20026;-61
2022/08/12 01:00:01;;;;;;;3.03;1.60;;;;;;;24.54;48.15;101425.59;4842675;29;20034;-59
2022/08/12 01:02:33;;;;;;;5.22;1.35;;;;;;;24.69;48.12;101425.47;4843060;29;20030;-59
2022/08/12 01:13:25;;;;;;;4.07;1.50;;;;;;;24.35;48.60;101412.59;4842926;29;20102;-59
2022/08/12 01:15:55;;;;;;;4.43;1.27;;;;;;;24.51;48.59;101417.97;4843080;29;20029;-59
2022/08/12 01:18:25;;;;;;;6.35;1.45;;;;;;;24.41;48.28;101413.38;4842711;29;20061;-59
2022/08/12 01:20:51;;;;;;;4.25;1.70;;;;;;;24.37;48.62;101412.31;4842787;29;20034;-58
2022/08/12 01:23:35;;;;;;;5.55;1.50;;;;;;;24.31;48.27;101413.41;4842348;29;20108;-59
2022/08/12 01:26:05;;;;;;;3.77;1.40;;;;;;;24.06;48.80;101409.75;4842842;29;20033;-59
2022/08/12 01:28:34;;;;;;;5.20;2.00;;;;;;;24.38;49.03;101412.03;4843150;29;20034;-59
2022/08/12 01:31:05;;;;;;;7.78;1.67;;;;;;;24.42;48.70;101415.81;4842408;29;20511;-58
2022/08/12 01:33:49;;;;;;;3.05;1.15;;;;;;;24.06;48.49;101409.75;4842343;29;20088;-58
2022/08/12 01:36:18;;;;;;;6.55;1.40;;;;;;;24.21;48.74;101414.31;4842789;29;20078;-59
2022/08/12 01:38:46;;;;;;;3.28;1.45;;;;;;;24.15;49.20;101410.81;4842324;29;20503;-59
2022/08/12 01:41:15;;;;;;;2.55;1.23;;;;;;;23.83;50.30;101413.97;4842202;29;20104;-59
2022/08/12 01:43:43;;;;;;;6.18;1.58;;;;;;;24.18;49.51;101409.41;4825327;29;20034;-59
2022/08/12 01:46:37;;;;;;;2.97;1.50;;;;;;;24.11;49.30;101403.44;4841950;29;20045;-57
2022/08/12 01:49:12;;;;;;;6.25;1.55;;;;;;;23.96;49.74;101413.34;4842190;29;20029;-57
2022/08/12 01:51:41;;;;;;;5.00;1.77;;;;;;;24.00;50.24;101408.16;4842316;29;20109;-56
2022/08/12 01:54:16;;;;;;;5.18;1.33;;;;;;;23.99;49.08;101406.53;4842529;29;20026;-57
2022/08/12 01:56:48;;;;;;;;;;;;;;;24.02;49.20;101414.16;4842345;29;20076;-57
2022/08/12 01:59:46;;;;;;;2.42;1.02;;;;;;;24.05;49.49;101410.84;4841851;29;19953;-57
2022/08/12 02:02:18;;;;;;;5.25;1.50;;;;;;;23.92;49.44;101416.94;4842129;29;20030;-57
2022/08/12 02:11:27;;;;;;;5.38;1.40;;;;;;;24.27;48.21;101415.91;4842093;29;20076;-58
2022/08/12 02:14:23;;;;;;;3.97;1.17;;;;;;;24.24;48.16;101419.22;4841936;29;20022;-58
2022/08/12 02:17:04;;;;;;;4.43;1.35;;;;;;;24.41;45.52;101413.38;4826128;29;20383;-59
2022/08/12 02:19:48;;;;;;;1.35;0.90;;;;;;;24.55;43.10;101419.03;4841685;29;20475;-58
2022/08/12 02:22:27;;;;;;;1.35;0.90;;;;;;;24.69;43.11;101420.00;4841691;29;20038;-59
2022/08/12 02:25:07;;;;;;;1.52;0.60;;;;;;;24.88;42.96;101417.38;4841853;29;20030;-58
2022/08/12 02:27:38;;;;;;;1.85;0.60;;;;;;;24.91;43.40;101412.13;4842122;29;20086;-58
2022/08/12 02:30:10;;;;;;;1.52;0.70;;;;;;;24.77;42.84;101418.59;4841749;29;20030;-58
2022/08/12 02:32:41;;;;;;;1.55;0.77;;;;;;;24.53;42.89;101416.56;4841801;29;20390;-58
2022/08/12 02:35:14;;;;;;;4.32;0.70;;;;;;;24.63;42.75;101416.47;4841742;29;20022;-58
2022/08/12 02:37:42;;;;;;;1.20;0.80;;;;;;;24.52;43.14;101416.84;4841785;29;20077;-58
2022/08/12 02:40:11;;;;;;;4.68;1.10;;;;;;;24.55;43.97;101421.78;4841534;29;20040;-59
2022/08/12 02:42:52;;;;;;;3.10;0.80;;;;;;;24.17;44.28;101418.72;4841518;29;20036;-62
2022/08/12 02:45:26;;;;;;;1.88;0.90;;;;;;;23.79;45.62;101423.84;4841469;29;20052;-63
2022/08/12 02:47:57;;;;;;;2.30;1.10;;;;;;;23.59;45.79;101430.16;4841750;29;20415;-57
2022/08/12 02:50:30;;;;;;;1.83;0.85;;;;;;;23.31;46.39;101428.88;4841347;29;20257;-61
2022/08/12 02:52:58;;;;;;;2.42;0.82;;;;;;;22.68;48.11;101433.84;4841760;29;20121;-61
2022/08/12 02:55:30;;;;;;;1.35;0.70;;;;;;;22.67;48.48;101435.75;4841794;29;20041;-62
2022/08/12 02:57:58;;;;;;;2.35;0.88;;;;;;;22.34;49.15;101437.09;4845128;29;20118;-66
2022/08/12 03:00:25;;;;;;;1.73;0.90;;;;;;;22.20;49.89;101438.69;4844600;29;20037;-64
2022/08/12 03:02:53;;;;;;;1.13;0.80;;;;;;;22.08;50.06;101446.25;4844971;29;20136;-61
2022/08/12 03:05:23;;;;;;;1.73;0.82;;;;;;;21.86;50.00;101441.00;4828065;29;20448;-61
2022/08/12 03:07:53;;;;;;;1.23;0.70;;;;;;;21.56;50.84;101439.78;4844627;29;20062;-61
2022/08/12 03:10:23;;;;;;;2.60;0.80;;;;;;;21.59;50.82;101446.59;4844840;29;20063;-60
2022/08/12 03:12:56;;;;;;;2.55;1.00;;;;;;;21.25;51.84;101449.63;4844640;29;20033;-61
2022/08/12 03:15:23;;;;;;;2.58;1.10;;;;;;;21.26;51.57;101454.00;4844833;29;20037;-61
2022/08/12 03:18:02;;;;;;;1.77;1.27;;;;;;;21.21;52.30;101450.41;4844546;29;20030;-61
2022/08/12 03:20:28;;;;;;;3.50;0.90;;;;;;;21.06;52.91;101454.69;4844902;29;20037;-61
2022/08/12 03:22:55;;;;;;;3.03;0.93;;;;;;;20.87;53.59;101458.88;4844505;29;20037;-61
2022/08/12 03:25:26;;;;;;;2.65;1.15;;;;;;;20.92;53.19;101452.66;4844429;29;20091;-61
2022/08/12 03:27:54;;;;;;;3.03;0.90;;;;;;;21.09;53.09;101458.78;4844643;29;20030;-61
2022/08/12 03:30:32;;;;;;;2.53;0.98;;;;;;;20.85;53.52;101452.06;4844399;29;20034;-61
2022/08/12 03:33:00;;;;;;;4.63;1.08;;;;;;;20.81;52.96;101458.03;4844746;29;20030;-62
2022/08/12 03:35:31;;;;;;;1.48;0.70;;;;;;;20.85;52.99;101452.91;4844673;29;20086;-62
2022/08/12 03:38:10;;;;;;;1.70;0.80;;;;;;;20.92;53.00;101455.38;4844501;29;20487;-62
2022/08/12 04:00:23;;;;;;;1.73;1.37;;;;;;;20.42;54.27;101459.25;4862526;29;20391;-63
2022/08/12 04:03:02;;;;;;;3.42;1.10;;;;;;;20.42;54.13;101464.69;4862491;29;20045;-62
2022/08/12 04:05:30;;;;;;;3.58;0.88;;;;;;;20.46;54.24;101463.16;4862269;29;20025;-63
2022/08/12 04:07:58;;;;;;;1.85;0.80;;;;;;;20.35;54.64;101474.97;4861768;29;20040;-62
2022/08/12 04:13:20;;;;;;;1.55;0.90;;;;;;;20.49;54.15;101470.81;4862907;29;20387;-62
2022/08/12 04:15:46;;;;;;;2.08;1.40;;;;;;;20.50;54.45;101467.00;4861953;29;20112;-61
2022/08/12 04:18:17;;;;;;;2.65;0.90;;;;;;;20.52;54.03;101471.09;4862050;29;20105;-61
2022/08/12 04:20:48;;;;;;;2.75;0.95;;;;;;;20.37;54.25;101479.06;4861795;29;20026;-61
2022/08/12 04:23:15;;;;;;;2.13;1.20;;;;;;;20.48;54.54;101480.84;4861879;29;20038;-61
2022/08/12 04:25:43;;;;;;;1.50;0.90;;;;;;;20.36;54.92;101476.59;4861791;29;20053;-61
2022/08/12 04:28:11;;;;;;;2.45;1.23;;;;;;;20.39;54.69;101481.53;4861965;29;20105;-61
2022/08/12 04:30:39;;;;;;;2.95;1.20;;;;;;;20.35;54.49;101480.41;4861799;29;20521;-61
2022/08/12 04:33:11;;;;;;;3.65;1.17;;;;;;;20.23;54.89;101489.53;4861631;29;20037;-61
2022/08/12 04:35:37;;;;;;;2.90;1.00;;;;;;;20.19;54.91;101498.44;4861533;29;20436;-62
2022/08/12 04:38:04;;;;;;;2.75;1.10;;;;;;;20.21;54.84;101491.69;4861435;29;20026;-61
2022/08/12 04:40:32;;;;;;;2.17;1.10;;;;;;;20.22;54.85;101497.94;4861416;29;20086;-61
2022/08/12 04:43:00;;;;;;;1.92;0.90;;;;;;;20.06;55.05;101499.66;4861603;29;20021;-62
2022/08/12 04:45:26;;;;;;;3.53;1.40;;;;;;;20.15;55.11;101503.53;4861123;29;20060;-61
2022/08/12 04:47:52;;;;;;;2.92;1.13;;;;;;;20.18;56.15;101500.34;4861580;29;20033;-60
2022/08/12 04:50:19;;;;;;;4.65;1.40;;;;;;;20.18;58.04;101500.34;4861337;29;20032;-60
2022/08/12 04:52:46;;;;;;;4.20;2.10;;;;;;;20.12;59.08;101498.63;4861645;29;20022;-61
2022/08/12 04:55:12;;;;;;;2.08;1.40;;;;;;;20.08;59.72;101502.91;4861320;29;20045;-60
2022/08/12 04:57:38;;;;;;;4.45;1.45;;;;;;;20.06;59.46;101499.66;4861129;29;20467;-60
2022/08/12 05:00:13;;;;;;;3.97;1.55;;;;;;;19.80;60.85;101495.78;4861228;29;20072;-60
2022/08/12 05:02:39;;;;;;;5.55;1.60;;;;;;;19.62;61.35;101498.78;4861721;29;20558;-60
2022/08/12 05:05:09;;;;;;;5.07;1.70;;;;;;;19.54;62.00;101489.13;4861068;29;20034;-60
2022/08/12 05:07:36;;;;;;;6.38;1.73;;;;;;;19.36;63.05;101492.13;4861396;29;20042;-60
2022/08/12 05:10:02;;;;;;;4.53;1.85;;;;;;;19.18;63.63;101485.06;4860949;29;20097;-60
2022/08/12 05:12:43;;;;;;;6.07;1.90;;;;;;;18.84;64.94;101487.78;4861638;29;20030;-60
2022/08/12 05:15:12;;;;;;;4.82;2.17;;;;;;;18.77;65.22;101487.13;4861130;29;20033;-60
2022/08/12 05:17:42;;;;;;;3.88;1.77;;;;;;;18.55;65.70;101476.13;4860642;29;20053;-60
2022/08/12 05:20:15;;;;;;;5.22;2.33;;;;;;;18.70;64.83;101479.13;4860590;29;20030;-60
2022/08/12 05:22:44;;;;;;;3.65;1.80;;;;;;;18.73;65.04;101485.97;4857444;29;20034;-60
2022/08/12 05:25:11;;;;;;;4.53;1.98;;;;;;;18.45;66.36;101484.88;4861147;29;20539;-60
2022/08/12 05:27:39;;;;;;;5.57;2.40;;;;;;;18.33;66.66;101483.31;4860763;29;20037;-60
2022/08/12 05:30:06;;;;;;;5.05;2.00;;;;;;;18.17;67.85;101482.19;4860885;29;20032;-60
2022/08/12 05:32:33;;;;;;;4.45;2.08;;;;;;;17.99;68.54;101476.91;4860795;29;20026;-60
2022/08/12 05:35:05;;;;;;;8.45;2.20;;;;;;;18.01;68.62;101481.03;4844690;29;20348;-60
2022/08/12 05:37:35;;;;;;;7.05;2.25;;;;;;;17.88;68.51;101476.72;4861139;29;20053;-60
2022/08/12 05:40:03;;;;;;;8.30;2.65;;;;;;;17.79;69.05;101471.91;4860622;29;20044;-60
2022/08/12 05:42:30;;;;;;;7.82;2.13;;;;;;;17.66;69.34;101473.78;4860594;29;20030;-60
2022/08/12 05:44:56;;;;;;;7.68;1.80;;;;;;;17.56;70.17;101473.56;4860523;29;20052;-60
2022/08/12 05:47:23;;;;;;;5.88;1.92;;;;;;;17.59;69.51;101470.38;4860568;29;20051;-60
2022/08/12 05:49:49;;;;;;;12.63;2.40;;;;;;;17.54;69.67;101478.38;4860522;29;20474;-60
2022/08/12 05:52:15;;;;;;;5.15;2.13;;;;;;;17.47;69.90;101466.84;4860838;29;20081;-60
2022/08/12 05:54:43;;;;;;;4.45;2.20;;;;;;;17.60;69.68;101474.75;4843984;29;20105;-60
2022/08/12 05:57:11;;;;;;;7.63;2.30;;;;;;;17.47;69.80;101461.44;4860814;29;20522;-60
2022/08/12 05:59:38;;;;;;;6.78;1.85;;;;;;;17.41;70.63;101465.91;4861042;29;20041;-60
2022/08/12 06:02:10;;;;;;;5.20;2.13;;;;;;;17.22;71.66;101461.69;4860453;29;20387;-60
2022/08/12 06:04:38;;;;;;;5.22;2.05;;;;;;;17.35;70.59;101457.91;4860756;29;20032;-60
2022/08/12 06:07:07;;;;;;;6.82;2.25;;;;;;;17.29;70.53;101450.75;4860387;29;20029;-59
2022/08/12 06:09:34;;;;;;;7.65;2.47;;;;;;;17.32;70.23;101458.38;4860390;29;20034;-60
2022/08/12 06:12:00;;;;;;;7.70;2.70;;;;;;;17.08;71.14;101452.97;4860301;29;20078;-60
2022/08/12 06:14:26;;;;;;;4.93;2.15;;;;;;;17.23;70.32;101454.41;4860960;29;20030;-60
2022/08/12 06:16:53;;;;;;;7.65;2.40;;;;;;;17.03;71.18;101447.44;4861238;29;20034;-60
2022/08/12 06:19:19;;;;;;;5.13;2.28;;;;;;;17.09;71.12;101457.31;4860199;29;20431;-60
2022/08/12 06:21:47;;;;;;;6.38;2.33;;;;;;;17.05;71.07;101455.34;4860410;29;20469;-60
2022/08/12 06:24:18;;;;;;;4.65;1.92;;;;;;;17.09;70.84;101454.63;4843801;29;20040;-60
2022/08/12 06:26:45;;;;;;;3.83;1.83;;;;;;;17.16;70.83;101451.81;4860529;29;20025;-60
2022/08/12 06:29:18;;;;;;;10.23;2.35;;;;;;;17.19;70.61;101450.50;4860639;29;20112;-60
2022/08/12 06:31:49;;;;;;;10.68;2.50;;;;;;;17.05;71.23;101453.44;4863806;29;20029;-60
2022/08/12 06:34:16;;;;;;;3.40;2.42;;;;;;;17.00;71.56;101445.22;4863967;29;20474;-60
2022/08/12 06:36:44;;;;;;;5.20;2.50;;;;;;;17.02;71.22;101453.91;4863924;29;20479;-60
2022/08/12 06:39:12;;;;;;;6.70;2.13;;;;;;;16.89;71.37;101454.13;4864141;29;20565;-60
2022/08/12 06:44:24;;;;;;;5.40;2.40;;;;;;;16.96;71.83;101462.13;4864192;29;20052;-60
2022/08/12 06:46:51;;;;;;;6.70;2.22;;;;;;;17.04;71.45;101465.31;4863585;29;20033;-60
2022/08/12 06:49:17;;;;;;;7.32;2.25;;;;;;;16.78;72.09;101463.88;4863439;29;20494;-60
2022/08/12 06:51:44;;;;;;;5.03;2.53;;;;;;;16.86;71.99;101468.09;4863633;29;20471;-60
2022/08/12 06:54:10;;;;;;;6.53;2.30;;;;;;;16.78;72.35;101466.56;4863829;29;20140;-60
2022/08/12 06:56:37;;;;;;;7.78;2.60;;;;;;;16.87;72.21;101461.63;4863488;29;20036;-60
2022/08/12 06:59:04;;;;;;;6.88;2.90;;;;;;;16.75;72.56;101456.22;4863199;29;20126;-60
2022/08/12 07:01:30;;;;;;;6.25;2.55;;;;;;;16.63;73.45;101461.56;4863522;29;20030;-60
2022/08/12 07:03:58;;;;;;;7.65;2.50;;;;;;;16.75;72.94;101455.38;4863275;29;20477;-60
2022/08/12 07:06:24;;;;;;;5.35;2.88;;;;;;;16.71;72.92;101465.00;4863685;29;20390;-60
2022/08/12 07:08:50;;;;;;;7.38;3.15;;;;;;;16.54;73.76;101467.53;4863167;29;20043;-60
2022/08/12 07:11:16;;;;;;;7.55;2.80;;;;;;;16.57;73.63;101451.69;4863203;29;20094;-59
2022/08/12 07:13:49;;;;;;;7.50;2.88;;;;;;;16.41;74.36;101462.31;4863392;29;20040;-60
2022/08/12 07:16:20;;;;;;;7.13;3.30;;;;;;;16.31;74.89;101463.69;4846575;29;20030;-60
2022/08/12 07:18:49;;;;;;;9.02;2.97;;;;;;;16.44;74.09;101461.88;4863176;29;20030;-60
2022/08/12 07:21:16;;;;;;;7.32;3.28;;;;;;;16.42;74.02;101462.06;4863134;29;20360;-60
2022/08/12 07:23:42;;;;;;;4.95;2.97;;;;;;;16.43;74.25;101461.03;4862906;29;20398;-60
2022/08/12 07:26:14;;;;;;;7.57;3.63;;;;;;;16.44;74.01;101462.69;4862965;29;20029;-60
2022/08/12 07:28:42;;;;;;;7.20;2.80;;;;;;;16.45;74.11;101456.22;4863187;29;20065;-60
2022/08/12 07:31:11;;;;;;;6.80;3.17;;;;;;;16.34;74.43;101467.81;4862958;29;20029;-60
2022/08/12 07:33:39;;;;;;;8.52;3.10;;;;;;;16.26;74.94;101479.75;4862855;29;20040;-60
2022/08/12 07:36:09;;;;;;;7.55;3.10;;;;;;;16.37;74.36;101472.75;4862688;29;20394;-60
2022/08/12 07:38:42;;;;;;;7.13;3.13;;;;;;;16.36;74.24;101485.44;4862844;29;20025;-60
2022/08/12 07:41:20;;;;;;;9.02;3.90;;;;;;;16.20;75.05;101488.75;4861990;29;20033;-60
2022/08/12 07:43:55;;;;;;;8.68;2.88;;;;;;;16.29;74.73;101490.09;4862600;29;20083;-60
2022/08/12 07:46:25;;;;;;;6.45;3.65;;;;;;;16.30;74.54;101486.34;4862591;29;20073;-60
2022/08/12 07:48:57;;;;;;;8.85;3.30;;;;;;;16.26;74.82;101484.31;4862508;29;20045;-60
2022/08/12 07:51:24;;;;;;;10.23;3.65;;;;;;;16.42;74.16;101491.78;4862634;29;20507;-60
2022/08/12 07:53:51;;;;;;;5.88;3.67;;;;;;;16.35;74.33;101491.91;4862405;29;20506;-60
2022/08/12 07:56:18;;;;;;;8.75;3.90;;;;;;;16.31;74.49;101485.28;4862402;29;20041;-60
2022/08/12 07:58:44;;;;;;;10.48;3.70;;;;;;;16.26;74.61;101487.03;4862191;29;20056;-60
2022/08/12 08:01:20;;;;;;;5.65;3.20;;;;;;;16.30;74.55;101480.94;4862185;29;20347;-60
2022/08/12 08:06:37;;;;;;;8.95;3.72;;;;;;;16.19;75.40;101486.28;4862318;29;20048;-60
2022/08/12 08:09:04;;;;;;;9.93;3.92;;;;;;;16.26;75.48;101484.31;4862125;29;20069;-59
2022/08/12 08:14:15;;;;;;;7.35;4.03;;;;;;;16.23;75.27;101485.63;4862775;29;20037;-60
2022/08/12 08:16:41;;;;;;;9.68;3.80;;;;;;;16.30;74.65;101485.53;4862050;29;20364;-60
2022/08/12 08:19:14;;;;;;;9.50;3.70;;;;;;;16.31;75.12;101479.88;4862219;29;20048;-59
2022/08/12 08:21:41;;;;;;;9.43;3.38;;;;;;;16.35;74.71;101483.78;4862084;29;20402;-60
2022/08/12 08:24:14;;;;;;;10.48;4.05;;;;;;;16.33;75.05;101482.38;4861893;29;20036;-60
2022/08/12 08:26:47;;;;;;;8.93;3.92;;;;;;;16.28;75.16;101474.97;4862566;29;20033;-60
2022/08/12 08:29:18;;;;;;;9.30;3.75;;;;;;;16.34;75.33;101478.63;4862230;29;20045;-60
2022/08/12 08:31:49;;;;;;;9.73;4.45;;;;;;;16.25;75.39;101480.81;4862257;29;20045;-60
2022/08/12 08:34:18;;;;;;;8.98;3.42;;;;;;;16.25;75.50;101471.88;4861883;29;20025;-60
2022/08/12 08:36:44;;;;;;;9.73;4.55;;;;;;;16.21;75.95;101467.97;4861810;29;20061;-59
2022/08/12 08:39:13;;;;;;;12.60;3.90;;;;;;;16.24;76.08;101471.06;4861696;29;20056;-60
2022/08/12 08:44:25;;;;;;;8.13;3.57;;;;;;;16.25;75.55;101475.41;4861737;29;20056;-60
2022/08/12 08:46:54;;;;;;;9.20;3.95;;;;;;;16.26;75.72;101476.22;4861597;29;20034;-60
2022/08/12 08:49:21;;;;;;;8.00;3.55;;;;;;;16.36;75.24;101471.09;4861548;29;20041;-60
2022/08/12 08:51:48;;;;;;;13.32;4.30;;;;;;;16.15;75.89;101469.72;4861465;29;20056;-59
2022/08/12 08:54:15;;;;;;;8.93;4.07;;;;;;;16.14;75.50;101469.94;4844757;29;20093;-60
2022/08/12 08:56:48;;;;;;;10.35;3.85;;;;;;;15.99;76.13;101471.19;4861362;29;20037;-60
2022/08/12 08:59:16;;;;;;;12.57;4.10;;;;;;;16.16;75.30;101465.13;4861717;29;20026;-60
2022/08/12 09:01:42;;;;;;;11.27;4.20;;;;;;;16.14;75.79;101467.25;4861285;29;20037;-60
2022/08/12 09:04:10;;;;;;;12.93;4.50;;;;;;;16.06;75.92;101468.41;4861552;29;20121;-60
2022/08/12 09:06:40;;;;;;;11.73;5.13;;;;;;;16.08;75.64;101464.41;4861514;29;20061;-60
2022/08/12 09:09:08;;;;;;;12.10;4.30;;;;;;;16.10;75.57;101472.25;4861429;29;20029;-60
2022/08/12 09:14:19;;;;;;;10.15;4.22;;;;;;;16.08;76.05;101468.97;4861096;29;20060;-60
2022/08/12 09:16:45;;;;;;;8.18;3.75;;;;;;;16.07;76.09;101464.63;4860986;29;20025;-60
2022/08/12 09:19:14;;;;;;;11.18;3.65;;;;;;;16.03;76.02;101466.13;4860786;29;20454;-60
2022/08/12 09:21:41;;;;;;;9.02;4.20;;;;;;;15.98;75.69;101463.28;4861079;29;20029;-60
2022/08/12 09:24:07;;;;;;;9.80;4.10;;;;;;;15.92;75.71;101470.41;4860925;29;20021;-59
2022/08/12 09:26:36;;;;;;;13.98;4.55;;;;;;;15.96;75.37;101470.78;4860697;29;20447;-60
2022/08/12 09:29:04;;;;;;;13.27;4.82;;;;;;;15.94;75.33;101462.94;4860812;29;20025;-59
2022/08/12 09:31:33;;;;;;;12.40;4.60;;;;;;;15.90;75.64;101469.81;4860155;29;20408;-60
2022/08/12 09:33:59;;;;;;;12.07;3.97;;;;;;;15.95;75.27;101467.28;4859981;29;20026;-60
2022/08/12 09:36:26;;;;;;;8.98;4.70;;;;;;;15.89;76.04;101465.47;4859443;29;20022;-60
2022/08/12 09:38:52;;;;;;;11.75;4.55;;;;;;;15.86;76.04;101463.22;4860228;29;20037;-60
2022/08/12 09:41:21;;;;;;;16.58;5.30;;;;;;;15.80;76.16;101462.25;4860606;29;20033;-59
2022/08/12 09:46:33;;;;;;;15.57;5.22;;;;;;;15.86;76.38;101465.09;4861024;29;20088;-60
2022/08/12 09:48:59;;;;;;;13.10;4.80;;;;;;;16.01;75.84;101460.97;4860550;29;20033;-60
2022/08/12 09:51:31;;;;;;;15.38;4.65;;;;;;;15.86;76.19;101463.22;4860490;29;20038;-59
2022/08/12 09:53:57;;;;;;;13.82;4.53;;;;;;;15.81;77.19;101463.88;4860554;29;20085;-60
2022/08/12 09:56:24;;;;;;;11.00;4.70;;;;;;;15.91;76.92;101463.38;4860650;29;20402;-60
2022/08/12 09:58:50;;;;;;;16.15;5.43;;;;;;;15.95;76.85;101466.47;4860322;29;20477;-59
2022/08/12 10:01:18;;;;;;;11.02;4.80;;;;;;;15.96;76.62;101462.69;4860494;29;20033;-60
2022/08/12 10:03:45;;;;;;;10.30;4.95;;;;;;;15.87;77.40;101464.88;4860738;29;20037;-60
2022/08/12 10:06:11;;;;;;;14.35;5.53;;;;;;;15.78;77.58;101468.94;4866267;29;20030;-60
2022/08/12 10:08:38;;;;;;;11.55;5.05;;;;;;;15.88;77.29;101473.78;4866439;29;20049;-59
2022/08/12 10:13:54;;;;;;;13.40;4.97;;;;;;;15.92;76.79;101475.00;4867169;29;20493;-59
2022/08/12 10:16:30;;;;;;;10.32;4.50;;;;;;;15.85;77.42;101464.28;4866706;29;20062;-60
2022/08/12 10:18:58;;;;;;;12.43;4.78;;;;;;;15.78;77.80;101474.34;4866540;29;20093;-60
2022/08/12 10:21:38;;;;;;;13.55;5.32;;;;;;;15.88;77.13;101471.94;4866432;29;20041;-60
2022/08/12 10:24:10;;;;;;;9.98;5.03;;;;;;;15.77;77.81;101478.91;4867009;29;20098;-59
2022/08/12 10:29:46;;;;;;;14.30;5.15;;;;;;;15.83;77.19;101471.78;4866733;29;20090;-60
2022/08/12 10:32:17;;;;;;;11.13;4.45;;;;;;;15.77;77.35;101475.38;4866641;29;20133;-60
2022/08/12 10:34:43;;;;;;;9.27;4.30;;;;;;;15.81;77.26;101472.00;4866619;29;20066;-59
2022/08/12 10:37:09;;;;;;;15.77;5.40;;;;;;;15.72;77.69;101475.25;4849631;29;20060;-60
2022/08/12 10:39:38;;;;;;;9.43;4.35;;;;;;;15.70;78.03;101474.63;4866172;29;20128;-59
2022/08/12 10:44:52;;;;;;;12.30;4.63;;;;;;;15.81;77.06;101476.56;4866566;29;20529;-60
2022/08/12 10:47:21;;;;;;;12.98;4.63;;;;;;;15.80;77.13;101475.75;4866247;29;20037;-59
2022/08/12 10:49:48;;;;;;;11.45;4.68;;;;;;;15.67;77.01;101483.19;4866501;29;20022;-60
2022/08/12 10:52:14;;;;;;;10.13;4.03;;;;;;;15.74;76.32;101479.34;4866326;29;20037;-59
2022/08/12 10:54:41;;;;;;;12.10;5.82;;;;;;;15.45;77.28;101472.78;4866488;29;20033;-60
2022/08/12 10:57:08;;;;;;;13.65;4.60;;;;;;;15.59;76.52;101476.16;4866134;29;20025;-59
2022/08/12 10:59:34;;;;;;;15.75;5.22;;;;;;;15.62;76.19;101470.31;4866003;29;20038;-60
2022/08/12 11:02:02;;;;;;;11.63;4.53;;;;;;;15.65;76.27;101469.06;4866223;29;20482;-60
2022/08/12 11:04:30;;;;;;;14.05;5.07;;;;;;;15.52;76.99;101470.84;4866160;29;20034;-60
2022/08/12 11:06:57;;;;;;;13.73;4.95;;;;;;;15.48;77.10;101468.78;4866137;29;20033;-60
2022/08/12 11:09:30;;;;;;;15.02;5.28;;;;;;;15.51;77.31;101463.78;4866551;29;20102;-60
2022/08/12 11:11:58;;;;;;;9.63;4.78;;;;;;;15.62;76.92;101466.81;4866081;29;20061;-60
2022/08/12 11:14:32;;;;;;;12.20;4.95;;;;;;;15.50;77.68;101464.03;4850220;29;20402;-60
2022/08/12 11:17:06;;;;;;;9.90;4.70;;;;;;;15.49;77.87;101465.91;4862627;29;20053;-59
2022/08/12 11:19:35;;;;;;;11.23;4.80;;;;;;;15.57;77.40;101473.69;4863608;29;20296;-59
2022/08/12 11:22:05;;;;;;;12.52;5.43;;;;;;;15.63;77.28;101469.28;4863164;29;20037;-59
2022/08/12 11:24:32;;;;;;;11.75;5.00;;;;;;;15.56;77.83;101463.94;4846497;29;20379;-60
2022/08/12 11:27:00;;;;;;;12.35;5.57;;;;;;;15.59;77.62;101452.69;4863102;29;20532;-59
2022/08/12 11:29:28;;;;;;;16.52;5.15;;;;;;;15.54;77.94;101460.63;4846191;29;20452;-59
2022/08/12 11:31:55;;;;;;;10.80;5.13;;;;;;;15.66;77.37;101451.84;4863261;29;20470;-59
2022/08/12 11:34:21;;;;;;;14.82;5.10;;;;;;;15.74;77.23;101456.94;4863248;29;20037;-60
2022/08/12 11:36:52;;;;;;;13.95;4.85;;;;;;;15.72;77.08;101450.94;4863078;29;20025;-60
2022/08/12 11:39:19;;;;;;;9.52;4.72;;;;;;;15.77;76.81;101451.09;4863485;29;20063;-60
2022/08/12 11:41:46;;;;;;;16.88;5.40;;;;;;;15.76;76.66;101450.25;4862897;29;20026;-59
2022/08/12 11:44:12;;;;;;;18.50;5.65;;;;;;;15.58;76.31;101440.25;4862792;29;20390;-60
2022/08/12 11:46:40;;;;;;;12.93;4.82;;;;;;;15.64;76.60;101446.66;4862793;29;20044;-59
2022/08/12 11:49:07;;;;;;;10.85;4.88;;;;;;;15.45;77.35;101443.09;4862782;29;20540;-60
2022/08/12 11:51:34;;;;;;;14.27;5.20;;;;;;;15.52;76.60;101445.72;4862619;29;20037;-57
2022/08/12 11:54:01;;;;;;;15.20;5.05;;;;;;;15.58;76.20;101444.81;4862463;29;20033;-60
2022/08/12 11:56:28;;;;;;;13.20;4.90;;;;;;;15.59;76.13;101441.06;4862574;29;20074;-58
2022/08/12 11:58:54;;;;;;;13.00;5.00;;;;;;;15.44;76.51;101438.75;4862327;29;20482;-58
2022/08/12 12:01:20;;;;;;;15.18;5.03;;;;;;;15.44;76.55;101443.34;4862290;29;20049;-58
2022/08/12 12:03:47;;;;;;;12.07;5.15;;;;;;;15.37;76.63;101446.06;4862622;29;20029;-58
2022/08/12 12:06:14;;;;;;;17.20;5.22;;;;;;;15.48;76.26;101445.34;4862675;29;20058;-58
2022/08/12 12:08:41;;;;;;;14.57;4.90;;;;;;;15.26;76.89;101453.03;4861936;29;20422;-58
2022/08/12 12:11:07;;;;;;;12.82;5.03;;;;;;;15.24;77.37;101451.59;4862494;29;20387;-58
2022/08/12 12:13:33;;;;;;;16.08;5.18;;;;;;;15.26;77.58;101455.72;4861765;29;20056;-58
2022/08/12 12:15:59;;;;;;;11.57;5.10;;;;;;;15.25;77.45;101458.66;4862388;29;20112;-58
2022/08/12 12:18:28;;;;;;;12.63;5.70;;;;;;;15.26;77.72;101446.81;4861683;29;20037;-58
2022/08/12 12:21:00;;;;;;;15.63;5.28;;;;;;;15.23;77.65;101455.34;4862302;29;20068;-58
2022/08/12 12:23:27;;;;;;;14.38;4.95;;;;;;;15.20;77.77;101447.69;4862029;29;20025;-58
2022/08/12 12:25:54;;;;;;;17.15;5.40;;;;;;;15.23;77.95;101455.34;4861940;29;20477;-59
2022/08/12 12:28:20;;;;;;;13.25;4.90;;;;;;;15.07;78.20;101461.31;4861513;29;20030;-60
2022/08/12 12:30:46;;;;;;;21.77;5.70;;;;;;;15.19;78.00;101462.22;4861666;29;20058;-62
2022/08/12 12:33:13;;;;;;;14.50;5.15;;;;;;;15.04;78.07;101462.56;4861703;29;20029;-57
2022/08/12 12:35:40;;;;;;;12.30;5.22;;;;;;;15.05;78.35;101470.44;4861639;29;20029;-55
2022/08/12 12:38:09;;;;;;;12.45;4.93;;;;;;;15.18;77.78;101468.69;4861684;29;20126;-59
2022/08/12 12:40:37;;;;;;;13.25;5.47;;;;;;;15.17;77.95;101467.03;4861755;29;20040;-59
2022/08/12 12:43:03;;;;;;;16.48;4.72;;;;;;;15.23;77.60;101461.56;4861442;29;20386;-60
2022/08/12 12:45:31;;;;;;;15.23;4.95;;;;;;;15.21;77.74;101471.78;4861595;29;20066;-60
2022/08/12 12:48:03;;;;;;;13.07;5.13;;;;;;;15.26;77.77;101465.69;4861644;29;20029;-58
2022/08/12 12:50:41;;;;;;;11.68;5.00;;;;;;;15.23;77.80;101466.97;4861471;29;20030;-56
2022/08/12 12:53:08;;;;;;;12.35;4.72;;;;;;;15.16;77.59;101471.59;4861742;29;20029;-56
2022/08/12 12:55:36;;;;;;;8.50;4.68;;;;;;;15.10;78.06;101469.75;4861645;29;20034;-56
2022/08/12 12:58:15;;;;;;;17.23;5.20;;;;;;;15.18;78.05;101474.91;4861345;29;20029;-57
2022/08/12 13:00:43;;;;;;;14.32;5.20;;;;;;;15.04;78.40;101479.56;4861287;29;20507;-57
2022/08/12 13:03:11;;;;;;;13.65;5.20;;;;;;;15.02;78.68;101473.56;4861212;29;20105;-57
2022/08/12 13:05:40;;;;;;;13.02;5.00;;;;;;;15.19;77.98;101479.22;4844676;29;20098;-57
2022/08/12 13:08:33;;;;;;;13.38;5.10;;;;;;;15.15;78.36;101485.28;4861155;29;20025;-56
2022/08/12 13:11:02;;;;;;;15.75;5.05;;;;;;;15.19;78.27;101483.81;4859699;29;20116;-53
2022/08/12 13:13:35;;;;;;;10.70;5.15;;;;;;;15.13;78.34;101493.59;4860976;29;20040;-54
2022/08/12 13:16:03;;;;;;;12.35;5.35;;;;;;;15.19;78.64;101489.19;4861072;29;20033;-55
2022/08/12 13:18:35;;;;;;;13.77;5.65;;;;;;;15.27;78.36;101499.72;4861701;29;20035;-52